Time;durP1;ratioP1;P1;durP2;ratioP2;P2;SDS_P1;SDS_P2;PMS_P1;PMS_P2;Temp;Humidity;BMP_temperature;BMP_pressure;BME280_temperature;BME280_humidity;BME280_pressure;Samples;Min_cycle;Max_cycle;Signal;HPM_P1;HPM_P2
2022/07/31 00:00:10;;;;;;;6.90;3.03;;;18.60;99.90;;;;;;5012293;28;20025;-82
2022/07/31 00:02:35;;;;;;;18.38;3.30;;;18.50;99.90;;;;;;5017369;28;20117;-82
2022/07/31 00:05:02;;;;;;;5.78;2.65;;;18.40;99.90;;;;;;5010472;28;20101;-82
2022/07/31 00:07:28;;;;;;;12.20;3.38;;;18.30;99.90;;;;;;5064774;23;20053;-74
2022/07/31 00:09:54;;;;;;;5.13;2.47;;;18.30;99.90;;;;;;5052656;28;20401;-74
2022/07/31 00:12:21;;;;;;;5.35;2.33;;;18.30;99.90;;;;;;5052288;28;20021;-73
2022/07/31 00:14:47;;;;;;;10.95;3.15;;;18.40;99.90;;;;;;5068084;28;20025;-75
2022/07/31 00:17:13;;;;;;;5.43;2.33;;;18.50;99.90;;;;;;5041475;28;20021;-74
2022/07/31 00:19:40;;;;;;;6.57;2.75;;;18.50;99.90;;;;;;5033058;28;20106;-74
2022/07/31 00:22:06;;;;;;;11.38;3.13;;;18.50;99.90;;;;;;5032670;28;20028;-74
2022/07/31 00:24:32;;;;;;;7.90;2.75;;;18.50;99.90;;;;;;5030717;28;20069;-74
2022/07/31 00:26:58;;;;;;;7.15;2.95;;;18.60;99.90;;;;;;5033307;28;20021;-74
2022/07/31 00:29:24;;;;;;;7.40;2.55;;;18.50;99.90;;;;;;5033255;28;20086;-74
2022/07/31 00:31:50;;;;;;;6.80;2.67;;;18.50;99.90;;;;;;5032789;28;20025;-74
2022/07/31 00:34:16;;;;;;;4.85;2.60;;;18.50;99.90;;;;;;5030324;28;20026;-74
2022/07/31 00:36:42;;;;;;;5.35;2.50;;;18.40;99.90;;;;;;5032154;28;20021;-74
2022/07/31 00:39:09;;;;;;;7.28;2.45;;;18.40;99.90;;;;;;5032251;28;20024;-74
2022/07/31 00:41:43;;;;;;;11.95;2.63;;;18.40;99.90;;;;;;5032807;28;20384;-74
2022/07/31 00:44:10;;;;;;;8.85;3.10;;;18.30;99.90;;;;;;5028734;28;20025;-74
2022/07/31 00:46:36;;;;;;;9.98;2.72;;;18.30;99.90;;;;;;5032532;28;20026;-74
2022/07/31 00:49:03;;;;;;;5.38;2.65;;;18.40;99.90;;;;;;5032781;28;20037;-74
2022/07/31 00:51:29;;;;;;;5.57;3.53;;;18.50;99.90;;;;;;5031339;28;20134;-74
2022/07/31 00:53:54;;;;;;;10.43;3.00;;;18.50;99.90;;;;;;5030886;28;20045;-74
2022/07/31 00:56:20;;;;;;;7.07;3.15;;;18.60;99.90;;;;;;5029642;28;20458;-74
2022/07/31 00:58:46;;;;;;;6.50;2.70;;;18.70;99.90;;;;;;5034042;28;20025;-74
2022/07/31 01:01:12;;;;;;;4.50;2.47;;;18.70;99.90;;;;;;5029798;28;20018;-75
2022/07/31 01:03:37;;;;;;;9.75;3.22;;;18.60;99.90;;;;;;5025842;28;20034;-74
2022/07/31 01:06:03;;;;;;;7.80;3.03;;;18.60;99.90;;;;;;5052280;23;20104;-81
2022/07/31 01:08:30;;;;;;;5.28;2.85;;;18.60;99.90;;;;;;5030241;28;20045;-82
2022/07/31 01:11:05;;;;;;;9.27;2.92;;;18.50;99.90;;;;;;5029914;28;20048;-81
2022/07/31 01:13:48;;;;;;;8.40;2.75;;;18.50;99.90;;;;;;5029685;28;20026;-82
2022/07/31 01:16:17;;;;;;;6.07;3.17;;;18.40;99.90;;;;;;5026282;28;20014;-82
2022/07/31 01:18:43;;;;;;;7.10;2.97;;;18.30;99.90;;;;;;5009701;28;20022;-82
2022/07/31 01:21:16;;;;;;;6.53;2.60;;;18.30;99.90;;;;;;5009980;28;20021;-82
2022/07/31 01:24:08;;;;;;;4.00;3.30;;;18.20;99.90;;;;;;5010022;28;20034;-82
2022/07/31 01:26:52;;;;;;;4.88;3.10;;;18.20;99.90;;;;;;5002475;28;20061;-81
2022/07/31 01:29:27;;;;;;;5.45;2.60;;;18.10;99.90;;;;;;5004282;28;20084;-80
2022/07/31 01:32:12;;;;;;;8.60;2.70;;;18.00;99.90;;;;;;5011313;28;20021;-82
2022/07/31 01:34:51;;;;;;;9.02;3.28;;;18.00;99.90;;;;;;5011424;28;20030;-82
2022/07/31 01:37:22;;;;;;;5.15;3.15;;;18.00;99.90;;;;;;5009978;28;20014;-81
2022/07/31 01:40:09;;;;;;;8.53;3.03;;;17.90;99.90;;;;;;5010131;28;20037;-81
2022/07/31 01:42:37;;;;;;;4.13;2.85;;;17.90;99.90;;;;;;5008994;28;20295;-81
2022/07/31 01:45:06;;;;;;;8.38;2.95;;;17.90;99.90;;;;;;5010942;28;20083;-82
2022/07/31 01:47:33;;;;;;;8.15;3.78;;;17.80;99.90;;;;;;5011360;28;20030;-81
2022/07/31 01:50:00;;;;;;;4.95;3.05;;;17.90;99.90;;;;;;5009614;28;20025;-81
2022/07/31 01:52:29;;;;;;;10.63;3.60;;;17.90;99.90;;;;;;5010674;28;20022;-81
2022/07/31 01:54:56;;;;;;;6.22;3.33;;;17.90;99.90;;;;;;5009821;28;20054;-81
2022/07/31 01:57:23;;;;;;;7.03;3.97;;;17.80;99.90;;;;;;5010928;28;20052;-82
2022/07/31 01:59:52;;;;;;;9.73;4.97;;;17.80;99.90;;;;;;5009497;28;20022;-82
2022/07/31 02:02:19;;;;;;;13.38;4.03;;;17.80;99.90;;;;;;5009455;28;20038;-81
2022/07/31 02:04:46;;;;;;;13.15;5.40;;;17.80;99.90;;;;;;5010925;28;20471;-81
2022/07/31 02:07:13;;;;;;;9.65;4.85;;;17.80;99.90;;;;;;5039352;23;20466;-74
2022/07/31 02:09:43;;;;;;;10.13;4.93;;;17.80;99.90;;;;;;5010655;28;20029;-74
2022/07/31 02:12:13;;;;;;;9.68;4.53;;;17.80;99.90;;;;;;5011494;28;20044;-74
2022/07/31 02:14:41;;;;;;;8.65;4.20;;;17.80;99.90;;;;;;5008313;28;20022;-74
2022/07/31 02:17:08;;;;;;;8.25;4.22;;;17.90;99.90;;;;;;5011068;28;20049;-74
2022/07/31 02:19:40;;;;;;;7.20;3.67;;;17.90;99.90;;;;;;5009395;28;20025;-74
2022/07/31 02:22:06;;;;;;;11.45;4.47;;;17.90;99.90;;;;;;5009592;28;20583;-74
2022/07/31 02:24:33;;;;;;;9.85;4.13;;;17.80;99.90;;;;;;5008602;28;20059;-74
2022/07/31 02:27:00;;;;;;;8.73;3.90;;;17.80;99.90;;;;;;5009834;28;20061;-74
2022/07/31 02:29:29;;;;;;;7.35;3.67;;;17.80;99.90;;;;;;5010630;28;20022;-74
2022/07/31 02:31:56;;;;;;;7.95;4.25;;;17.80;99.90;;;;;;5010387;28;20018;-74
2022/07/31 02:34:23;;;;;;;11.55;4.00;;;18.00;99.90;;;;;;5008032;28;20068;-74
2022/07/31 02:36:52;;;;;;;12.25;4.63;;;18.10;99.90;;;;;;5010577;28;20088;-73
2022/07/31 02:39:19;;;;;;;8.02;3.85;;;18.20;99.90;;;;;;5010389;28;20042;-73
2022/07/31 02:41:46;;;;;;;6.57;3.75;;;18.20;99.90;;;;;;5010089;28;20014;-74
2022/07/31 02:44:13;;;;;;;8.38;3.90;;;18.30;99.90;;;;;;5007673;28;20057;-74
2022/07/31 02:46:41;;;;;;;8.10;3.25;;;18.40;99.90;;;;;;5009143;28;20026;-74
2022/07/31 02:49:08;;;;;;;10.23;4.55;;;18.50;99.90;;;;;;5006221;28;20022;-74
2022/07/31 02:51:34;;;;;;;5.95;3.58;;;18.50;99.90;;;;;;5009162;28;20026;-74
2022/07/31 02:54:00;;;;;;;9.25;3.50;;;18.60;99.90;;;;;;5009531;28;20445;-74
2022/07/31 02:56:29;;;;;;;9.38;3.90;;;18.70;99.90;;;;;;5009838;28;20026;-74
2022/07/31 02:58:54;;;;;;;7.32;3.78;;;18.80;99.90;;;;;;5010001;28;20096;-74
2022/07/31 03:01:20;;;;;;;8.45;3.20;;;18.90;99.90;;;;;;5009840;28;20479;-74
2022/07/31 03:03:46;;;;;;;7.38;3.08;;;18.90;99.90;;;;;;5009539;28;20394;-74
2022/07/31 03:06:12;;;;;;;7.10;2.85;;;19.00;99.90;;;;;;5033766;23;20594;-80
2022/07/31 03:08:38;;;;;;;6.82;3.83;;;19.10;99.90;;;;;;5047340;28;20466;-80
2022/07/31 03:11:04;;;;;;;6.88;3.33;;;19.10;99.90;;;;;;5049157;28;20056;-80
2022/07/31 03:13:32;;;;;;;6.40;3.42;;;19.20;99.90;;;;;;5047885;28;20035;-79
2022/07/31 03:15:58;;;;;;;11.15;3.40;;;19.20;99.90;;;;;;5047972;28;20028;-80
2022/07/31 03:18:25;;;;;;;12.07;3.30;;;19.20;99.90;;;;;;5048210;28;20059;-82
2022/07/31 03:20:51;;;;;;;8.13;3.97;;;19.20;99.90;;;;;;5048704;28;20020;-80
2022/07/31 03:23:20;;;;;;;8.18;3.33;;;19.30;99.90;;;;;;5048645;28;20029;-80
2022/07/31 03:25:48;;;;;;;11.50;3.17;;;19.20;99.90;;;;;;5049265;28;20013;-80
2022/07/31 03:28:14;;;;;;;15.77;3.25;;;19.20;99.90;;;;;;5049102;28;20127;-80
2022/07/31 03:30:40;;;;;;;10.38;3.28;;;19.20;99.90;;;;;;5048793;28;20454;-80
2022/07/31 03:33:05;;;;;;;6.10;3.03;;;19.20;99.90;;;;;;5049090;28;20024;-82
2022/07/31 03:35:32;;;;;;;6.75;2.65;;;19.20;99.90;;;;;;5048824;28;20009;-80
2022/07/31 03:37:59;;;;;;;6.47;2.45;;;19.20;99.90;;;;;;5048559;28;20044;-81
2022/07/31 03:40:24;;;;;;;10.75;2.60;;;19.10;99.90;;;;;;5047918;28;20025;-80
2022/07/31 03:42:52;;;;;;;9.40;3.03;;;19.10;99.90;;;;;;5047950;28;20032;-80
2022/07/31 03:45:19;;;;;;;6.95;3.03;;;19.10;99.90;;;;;;5044600;28;20017;-81
2022/07/31 03:47:45;;;;;;;3.05;2.08;;;19.20;99.90;;;;;;5048250;28;20063;-80
2022/07/31 03:50:13;;;;;;;8.38;2.67;;;19.20;99.90;;;;;;5049440;28;20017;-81
2022/07/31 03:52:38;;;;;;;12.15;3.10;;;19.20;99.90;;;;;;5046886;28;20036;-80
2022/07/31 03:55:06;;;;;;;9.40;3.15;;;19.20;99.90;;;;;;5048862;28;20017;-81
2022/07/31 03:57:32;;;;;;;8.10;2.88;;;19.20;99.90;;;;;;5048848;28;20445;-81
2022/07/31 04:00:01;;;;;;;5.10;1.88;;;19.20;99.90;;;;;;5048905;28;20013;-79
2022/07/31 04:02:27;;;;;;;4.43;2.03;;;19.20;99.90;;;;;;5046930;28;20097;-80
2022/07/31 04:04:53;;;;;;;8.45;2.63;;;19.10;99.90;;;;;;5048921;28;20469;-82
2022/07/31 04:07:19;;;;;;;7.78;2.55;;;19.10;99.90;;;;;;5086871;22;20494;-74
2022/07/31 04:09:46;;;;;;;8.75;2.47;;;19.10;99.90;;;;;;5032395;28;20022;-74
2022/07/31 04:12:11;;;;;;;4.60;1.80;;;19.10;99.90;;;;;;5032453;28;20375;-75
2022/07/31 04:14:37;;;;;;;7.75;2.00;;;19.10;99.90;;;;;;5032148;28;20029;-75
2022/07/31 04:17:03;;;;;;;4.60;1.88;;;19.10;99.90;;;;;;5030818;28;20025;-74
2022/07/31 04:19:31;;;;;;;4.18;1.70;;;19.10;99.90;;;;;;5012111;28;20483;-74
2022/07/31 04:21:58;;;;;;;6.53;1.83;;;19.10;99.90;;;;;;5005857;28;20072;-74
2022/07/31 04:24:24;;;;;;;11.05;2.35;;;19.20;99.90;;;;;;5013264;28;20038;-74
2022/07/31 04:26:51;;;;;;;4.63;2.40;;;19.20;99.90;;;;;;5012918;28;20026;-74
2022/07/31 04:29:17;;;;;;;10.60;2.50;;;19.20;99.90;;;;;;5013872;28;20029;-75
2022/07/31 04:31:42;;;;;;;6.75;2.15;;;19.20;99.90;;;;;;5014610;28;20041;-73
2022/07/31 04:34:08;;;;;;;6.97;2.30;;;19.20;99.90;;;;;;5012776;28;20531;-74
2022/07/31 04:36:34;;;;;;;8.55;2.85;;;19.20;99.90;;;;;;5015978;28;20021;-73
2022/07/31 04:39:00;;;;;;;5.82;2.13;;;19.20;99.90;;;;;;5014422;28;20032;-75
2022/07/31 04:41:26;;;;;;;6.18;2.35;;;19.20;99.90;;;;;;5012213;28;20018;-74
2022/07/31 04:43:52;;;;;;;7.85;2.55;;;19.20;99.90;;;;;;5011894;28;20378;-74
2022/07/31 04:46:18;;;;;;;6.32;1.90;;;19.30;99.90;;;;;;5013212;28;20463;-74
2022/07/31 04:48:44;;;;;;;5.03;2.05;;;19.20;99.90;;;;;;5010134;28;20445;-74
2022/07/31 04:51:19;;;;;;;10.52;2.80;;;19.20;99.90;;;;;;5013166;28;20018;-74
2022/07/31 04:53:45;;;;;;;8.30;2.40;;;19.20;99.90;;;;;;5006274;28;20467;-74
2022/07/31 04:58:56;;;;;;;5.57;2.58;;;19.20;99.90;;;;;;5009582;28;20088;-76
2022/07/31 05:01:22;;;;;;;5.18;2.03;;;19.20;99.90;;;;;;5013035;28;20430;-76
2022/07/31 05:03:47;;;;;;;6.55;2.70;;;19.20;99.90;;;;;;5007796;28;20034;-75
2022/07/31 05:08:42;;;;;;;7.78;2.75;;;19.30;99.90;;;;;;4991945;28;20120;-81
2022/07/31 05:11:24;;;;;;;7.47;2.88;;;19.30;99.90;;;;;;4992504;28;20113;-80
2022/07/31 05:13:50;;;;;;;4.82;2.17;;;19.30;99.90;;;;;;4986038;28;20029;-79
2022/07/31 05:16:17;;;;;;;3.85;1.70;;;19.30;99.90;;;;;;4992185;28;20105;-80
2022/07/31 05:18:44;;;;;;;3.03;2.28;;;19.40;99.90;;;;;;4990022;28;20034;-81
2022/07/31 05:21:11;;;;;;;5.15;2.00;;;19.40;99.90;;;;;;4992760;28;20680;-80
2022/07/31 05:23:38;;;;;;;6.40;2.00;;;19.40;99.90;;;;;;4990740;28;20459;-80
2022/07/31 05:26:04;;;;;;;5.43;2.30;;;19.50;99.90;;;;;;4992100;28;20041;-81
2022/07/31 05:28:30;;;;;;;2.95;1.95;;;19.50;99.90;;;;;;4992341;28;20451;-82
2022/07/31 05:30:56;;;;;;;6.45;1.88;;;19.50;99.90;;;;;;4991899;28;20010;-82
2022/07/31 05:33:22;;;;;;;4.28;1.80;;;19.60;99.90;;;;;;4991295;28;20026;-82
2022/07/31 05:35:47;;;;;;;4.35;2.08;;;19.50;99.90;;;;;;4990945;28;20026;-82
2022/07/31 05:38:13;;;;;;;5.13;1.95;;;19.60;99.90;;;;;;4991333;28;20025;-80
2022/07/31 05:40:39;;;;;;;5.43;2.40;;;19.60;99.90;;;;;;4991690;28;20022;-79
2022/07/31 05:43:04;;;;;;;4.82;2.40;;;19.60;99.90;;;;;;4990553;28;20491;-80
2022/07/31 05:45:31;;;;;;;3.58;2.85;;;19.60;99.90;;;;;;4991650;28;20034;-80
2022/07/31 05:47:56;;;;;;;5.60;2.20;;;19.70;99.90;;;;;;4990044;28;20483;-81
2022/07/31 05:50:22;;;;;;;7.13;3.13;;;19.70;99.90;;;;;;4991613;28;20061;-80
2022/07/31 05:52:48;;;;;;;7.75;3.08;;;19.80;99.90;;;;;;4991118;28;20030;-80
2022/07/31 05:55:14;;;;;;;3.70;2.17;;;19.80;99.90;;;;;;4991460;28;20102;-79
2022/07/31 05:57:41;;;;;;;15.48;3.15;;;19.80;99.90;;;;;;4991347;28;20026;-81
2022/07/31 06:00:07;;;;;;;4.50;2.33;;;19.90;99.90;;;;;;4991202;28;20443;-81
2022/07/31 06:02:33;;;;;;;4.75;2.50;;;19.90;99.90;;;;;;4991442;28;20046;-80
2022/07/31 06:05:00;;;;;;;5.00;2.65;;;19.90;99.90;;;;;;4991485;28;20061;-81
2022/07/31 06:07:26;;;;;;;3.55;2.25;;;20.00;99.90;;;;;;4991626;28;20038;-81
2022/07/31 06:09:52;;;;;;;7.32;3.78;;;19.90;99.90;;;;;;4991021;28;20030;-80
2022/07/31 06:12:18;;;;;;;3.05;1.95;;;20.00;99.90;;;;;;4990844;28;20052;-82
2022/07/31 06:14:44;;;;;;;5.53;2.78;;;20.20;99.90;;;;;;4991431;28;20466;-81
2022/07/31 06:17:10;;;;;;;4.28;2.40;;;20.30;99.90;;;;;;4991127;28;20102;-83
2022/07/31 06:19:36;;;;;;;5.88;2.47;;;20.40;99.90;;;;;;4990875;28;20109;-83
2022/07/31 06:22:01;;;;;;;3.72;2.25;;;20.40;99.90;;;;;;4990947;28;20072;-82
2022/07/31 06:24:27;;;;;;;4.32;2.15;;;20.40;99.90;;;;;;4990788;28;20042;-82
2022/07/31 06:26:57;;;;;;;6.25;2.67;;;20.30;99.90;;;;;;4990960;28;20033;-82
2022/07/31 06:29:22;;;;;;;5.35;2.70;;;20.40;99.90;;;;;;4990690;28;20026;-80
2022/07/31 06:31:48;;;;;;;5.07;1.90;;;20.40;99.90;;;;;;4990862;28;20018;-81
2022/07/31 06:34:14;;;;;;;9.57;2.70;;;20.50;99.90;;;;;;4990951;28;20028;-82
2022/07/31 06:36:39;;;;;;;6.00;2.45;;;20.50;99.90;;;;;;4990639;28;20026;-81
2022/07/31 06:39:06;;;;;;;7.30;2.53;;;20.60;99.90;;;;;;4990433;28;20105;-80
2022/07/31 06:41:43;;;;;;;6.25;2.20;;;20.60;99.90;;;;;;4990685;28;20162;-80
2022/07/31 06:44:19;;;;;;;7.63;3.25;;;20.60;99.90;;;;;;4990255;28;20030;-82
2022/07/31 06:46:45;;;;;;;7.95;2.63;;;20.70;99.90;;;;;;4990677;28;20109;-80
2022/07/31 06:49:12;;;;;;;7.00;2.20;;;20.70;99.90;;;;;;4990460;28;20026;-80
2022/07/31 06:51:38;;;;;;;3.53;1.92;;;20.70;99.90;;;;;;4990015;28;20997;-81
2022/07/31 06:54:06;;;;;;;5.55;2.35;;;20.90;99.90;;;;;;4990244;28;20464;-80
2022/07/31 06:56:32;;;;;;;3.45;2.10;;;20.80;99.90;;;;;;4984234;28;20031;-81
2022/07/31 06:58:58;;;;;;;7.15;2.47;;;20.90;99.90;;;;;;4990433;28;20932;-81
2022/07/31 07:01:24;;;;;;;5.32;2.22;;;20.90;99.90;;;;;;4990057;28;20464;-80
2022/07/31 07:03:50;;;;;;;5.45;2.40;;;20.90;99.90;;;;;;4989482;28;20446;-81
2022/07/31 07:08:46;;;;;;;4.18;1.98;;;20.90;99.90;;;;;;4987074;28;20073;-75
2022/07/31 07:11:12;;;;;;;4.57;1.92;;;20.90;99.90;;;;;;4990049;28;20030;-75
2022/07/31 07:13:38;;;;;;;4.05;2.35;;;21.00;99.90;;;;;;4989936;28;20077;-75
2022/07/31 07:16:04;;;;;;;4.80;1.98;;;21.00;99.90;;;;;;4990007;28;20026;-74
2022/07/31 07:18:29;;;;;;;6.88;1.98;;;21.00;99.90;;;;;;4986760;28;20061;-74
2022/07/31 07:20:55;;;;;;;6.00;1.95;;;20.90;99.90;;;;;;4990457;28;20058;-75
2022/07/31 07:23:21;;;;;;;3.78;1.80;;;20.90;99.90;;;;;;4990145;28;20037;-75
2022/07/31 07:25:48;;;;;;;3.88;1.80;;;20.90;99.90;;;;;;4990359;28;20022;-75
2022/07/31 07:28:14;;;;;;;6.15;1.90;;;21.00;99.90;;;;;;4986694;28;20022;-74
2022/07/31 07:30:40;;;;;;;7.60;2.00;;;21.00;99.90;;;;;;4990197;28;20023;-73
2022/07/31 07:33:06;;;;;;;6.55;2.28;;;21.00;99.90;;;;;;4990695;28;20022;-74
2022/07/31 07:35:32;;;;;;;4.25;2.70;;;21.20;99.90;;;;;;4990365;28;20034;-74
2022/07/31 07:37:58;;;;;;;7.50;1.73;;;21.20;99.90;;;;;;4990443;28;20053;-74
2022/07/31 07:40:25;;;;;;;4.15;2.08;;;21.20;99.90;;;;;;5006322;28;20525;-74
2022/07/31 07:42:51;;;;;;;9.50;3.03;;;21.20;99.90;;;;;;4994329;28;20026;-74
2022/07/31 07:45:16;;;;;;;4.95;2.35;;;21.10;99.90;;;;;;4994045;28;20561;-74
2022/07/31 07:47:42;;;;;;;5.75;2.15;;;21.10;99.90;;;;;;4994097;28;20037;-74
2022/07/31 07:50:10;;;;;;;5.00;2.67;;;21.00;99.90;;;;;;4992291;28;20022;-75
2022/07/31 07:52:37;;;;;;;8.20;2.70;;;20.80;99.90;;;;;;4994126;28;20300;-74
2022/07/31 07:55:05;;;;;;;7.80;2.38;;;20.80;99.90;;;;;;4994316;28;20029;-74
2022/07/31 07:57:31;;;;;;;7.63;2.65;;;20.80;99.90;;;;;;4994343;28;20070;-74
2022/07/31 08:00:04;;;;;;;6.55;2.67;;;20.70;99.90;;;;;;4993976;28;20097;-74
2022/07/31 08:02:30;;;;;;;5.13;2.55;;;20.60;99.90;;;;;;4993723;28;20026;-74
2022/07/31 08:04:56;;;;;;;10.20;2.72;;;20.70;99.90;;;;;;4999577;28;20030;-75
2022/07/31 08:07:29;;;;;;;4.97;2.63;;;20.80;99.90;;;;;;5017483;23;20048;-79
2022/07/31 08:09:57;;;;;;;8.18;2.90;;;20.80;99.90;;;;;;5014508;28;20057;-79
2022/07/31 08:12:24;;;;;;;7.72;2.92;;;20.80;99.90;;;;;;5014377;28;20352;-82
2022/07/31 08:14:49;;;;;;;10.23;3.17;;;20.90;99.90;;;;;;5012764;28;20026;-82
2022/07/31 08:17:15;;;;;;;8.45;2.58;;;21.00;99.90;;;;;;5015978;28;20034;-79
2022/07/31 08:19:41;;;;;;;9.73;3.13;;;21.20;99.90;;;;;;5012246;28;20026;-80
2022/07/31 08:22:08;;;;;;;10.60;3.58;;;21.40;99.90;;;;;;5012149;28;20033;-82
2022/07/31 08:24:33;;;;;;;9.05;2.78;;;21.60;99.90;;;;;;5015891;28;20039;-82
2022/07/31 08:29:44;;;;;;;8.48;2.38;;;22.40;99.90;;;;;;5018620;28;20156;-83
2022/07/31 08:32:10;;;;;;;5.53;2.63;;;22.60;99.90;;;;;;5015132;28;20536;-80
2022/07/31 08:34:37;;;;;;;6.25;2.75;;;22.40;99.90;;;;;;5012892;28;20441;-81
2022/07/31 08:37:05;;;;;;;7.90;2.88;;;22.50;99.90;;;;;;5012217;28;20030;-79
2022/07/31 08:39:34;;;;;;;5.97;1.95;;;22.50;99.90;;;;;;5012973;28;20037;-81
2022/07/31 08:42:04;;;;;;;4.43;2.25;;;22.60;99.90;;;;;;5011990;28;20018;-81
2022/07/31 08:44:30;;;;;;;4.80;2.05;;;22.70;99.90;;;;;;5011990;28;20372;-81
2022/07/31 08:46:57;;;;;;;5.40;2.10;;;22.70;99.90;;;;;;5015880;28;20080;-80
2022/07/31 08:49:25;;;;;;;6.95;2.20;;;22.70;99.90;;;;;;5011828;28;20022;-80
2022/07/31 08:51:52;;;;;;;4.85;2.15;;;23.10;99.90;;;;;;5013339;28;20403;-81
2022/07/31 08:54:19;;;;;;;5.82;1.88;;;24.00;99.90;;;;;;5013588;28;20502;-84
2022/07/31 08:56:45;;;;;;;6.07;2.08;;;23.80;99.90;;;;;;5013557;28;20037;-81
2022/07/31 08:59:11;;;;;;;6.60;1.42;;;23.80;99.90;;;;;;5013775;28;20068;-82
2022/07/31 09:01:37;;;;;;;5.30;2.28;;;23.90;99.90;;;;;;5013139;28;20037;-81
2022/07/31 09:04:03;;;;;;;5.68;1.98;;;24.00;99.90;;;;;;5012278;28;20064;-84
2022/07/31 09:06:29;;;;;;;4.28;1.50;;;23.80;99.90;;;;;;5010791;28;20057;-84
2022/07/31 09:08:55;;;;;;;4.15;1.48;;;23.50;99.90;;;;;;5012822;28;20045;-80
2022/07/31 09:11:22;;;;;;;4.15;1.08;;;23.20;99.90;;;;;;5013255;28;20106;-82
2022/07/31 09:13:59;;;;;;;5.40;1.33;;;23.00;99.90;;;;;;5013212;28;20049;-80
2022/07/31 09:16:25;;;;;;;2.40;1.20;;;23.00;99.90;;;;;;5012977;28;20025;-81
2022/07/31 09:19:09;;;;;;;3.60;1.50;;;23.10;99.90;;;;;;5011147;28;20026;-81
2022/07/31 09:21:43;;;;;;;2.72;1.35;;;22.90;99.90;;;;;;4968336;28;20042;-80
2022/07/31 09:24:10;;;;;;;3.30;1.58;;;22.80;99.90;;;;;;5009634;28;20380;-82
2022/07/31 09:26:36;;;;;;;3.08;1.30;;;22.80;99.90;;;;;;5014691;28;20060;-80
2022/07/31 09:29:07;;;;;;;5.40;1.40;;;22.80;99.90;;;;;;5012781;28;20446;-79
2022/07/31 09:31:36;;;;;;;5.37;1.90;;;22.60;99.90;;;;;;5012211;28;20570;-82
2022/07/31 09:34:02;;;;;;;4.43;2.08;;;22.50;99.90;;;;;;5012195;28;20509;-82
2022/07/31 09:38:56;;;;;;;5.72;2.28;;;21.80;99.90;;;;;;4969813;28;20287;-73
2022/07/31 09:41:22;;;;;;;7.78;2.17;;;21.60;99.90;;;;;;4978037;28;20027;-73
2022/07/31 09:43:58;;;;;;;4.80;1.90;;;21.50;99.90;;;;;;4992214;28;20448;-73
2022/07/31 09:46:24;;;;;;;5.43;2.00;;;21.50;99.90;;;;;;4972388;28;20046;-73
2022/07/31 09:48:52;;;;;;;13.15;2.67;;;21.40;99.90;;;;;;4977056;28;20038;-73
2022/07/31 09:51:18;;;;;;;8.40;2.47;;;21.30;99.90;;;;;;4972691;28;20027;-74
2022/07/31 09:53:52;;;;;;;10.68;1.90;;;21.20;99.90;;;;;;4972213;28;20530;-73
2022/07/31 09:56:30;;;;;;;4.22;1.85;;;21.30;99.90;;;;;;4970489;28;20531;-74
2022/07/31 09:58:56;;;;;;;7.30;2.03;;;21.30;99.90;;;;;;4972064;28;20607;-74
2022/07/31 10:01:22;;;;;;;6.70;2.05;;;21.60;99.90;;;;;;4972158;28;20030;-74
2022/07/31 10:03:50;;;;;;;9.55;2.03;;;22.00;99.90;;;;;;4971201;28;20069;-74
2022/07/31 10:06:18;;;;;;;13.68;2.13;;;22.10;99.90;;;;;;4972183;28;20046;-73
2022/07/31 10:08:45;;;;;;;8.05;2.38;;;22.00;99.90;;;;;;4968818;28;20037;-74
2022/07/31 10:11:12;;;;;;;9.60;2.20;;;21.80;99.90;;;;;;4987715;28;20054;-75
2022/07/31 10:13:44;;;;;;;9.35;2.42;;;21.80;99.90;;;;;;4972024;28;20507;-74
2022/07/31 10:16:10;;;;;;;7.30;2.00;;;21.80;99.90;;;;;;4974450;28;20085;-74
2022/07/31 10:18:44;;;;;;;4.05;1.90;;;22.30;99.90;;;;;;4970788;28;20365;-74
2022/07/31 10:21:12;;;;;;;4.40;1.80;;;22.50;99.90;;;;;;4972010;28;20041;-73
2022/07/31 10:23:40;;;;;;;8.13;1.98;;;22.70;99.90;;;;;;4971944;28;20030;-74
2022/07/31 10:26:06;;;;;;;5.35;1.98;;;22.70;99.90;;;;;;4971807;28;20022;-73
2022/07/31 10:28:35;;;;;;;10.18;2.10;;;22.90;99.90;;;;;;4972136;28;20521;-73
2022/07/31 10:31:01;;;;;;;5.25;2.10;;;23.30;99.90;;;;;;4970721;28;20087;-73
2022/07/31 10:33:27;;;;;;;9.90;2.13;;;23.50;99.90;;;;;;4971654;28;20532;-74
2022/07/31 10:36:10;;;;;;;9.65;1.98;;;23.50;99.90;;;;;;4972240;28;20138;-73
2022/07/31 10:38:40;;;;;;;5.10;1.92;;;23.30;99.90;;;;;;5008662;23;20050;-86
2022/07/31 10:41:09;;;;;;;5.95;1.90;;;23.00;99.90;;;;;;4998902;28;20014;-89
2022/07/31 10:43:51;;;;;;;9.10;2.30;;;22.70;99.90;;;;;;4991946;28;20042;-84
2022/07/31 10:46:30;;;;;;;6.60;2.42;;;22.60;99.90;;;;;;4992164;28;20021;-85
2022/07/31 10:48:57;;;;;;;7.90;2.55;;;22.40;99.90;;;;;;4972655;28;20033;-83
2022/07/31 10:51:23;;;;;;;4.72;2.40;;;22.50;99.90;;;;;;4978232;28;20011;-84
2022/07/31 10:54:04;;;;;;;9.90;2.40;;;22.40;99.90;;;;;;4978813;28;20054;-85
2022/07/31 10:56:43;;;;;;;9.27;2.13;;;22.40;99.90;;;;;;4971501;28;20027;-84
2022/07/31 10:59:10;;;;;;;7.55;2.50;;;22.20;99.90;;;;;;4972421;28;20026;-84
2022/07/31 11:01:53;;;;;;;7.68;2.35;;;22.00;99.90;;;;;;4971375;28;20027;-85
2022/07/31 11:04:33;;;;;;;8.70;2.28;;;21.80;99.90;;;;;;4971632;28;20027;-86
2022/07/31 11:06:59;;;;;;;5.75;2.30;;;21.80;99.90;;;;;;4972596;28;20047;-85
2022/07/31 11:09:27;;;;;;;9.23;2.15;;;21.80;99.90;;;;;;4970971;28;20114;-84
2022/07/31 11:11:54;;;;;;;12.23;3.13;;;21.70;99.90;;;;;;4971359;28;20083;-84
2022/07/31 11:14:40;;;;;;;5.63;2.40;;;21.60;99.90;;;;;;4972805;28;20034;-83
2022/07/31 11:17:06;;;;;;;6.07;2.28;;;21.50;99.90;;;;;;4976113;28;20074;-83
2022/07/31 11:19:42;;;;;;;5.95;2.13;;;21.60;99.90;;;;;;4975922;28;20058;-86
2022/07/31 11:22:13;;;;;;;12.45;4.18;;;21.80;99.90;;;;;;4975154;28;20027;-84
2022/07/31 11:24:38;;;;;;;9.82;2.70;;;21.80;99.90;;;;;;4974379;28;20546;-85
2022/07/31 11:27:04;;;;;;;5.55;2.50;;;21.80;99.90;;;;;;4974843;28;20023;-86
2022/07/31 11:29:35;;;;;;;5.63;2.25;;;21.70;99.90;;;;;;4974815;28;20030;-85
2022/07/31 11:32:14;;;;;;;7.95;3.00;;;21.80;99.90;;;;;;4982760;28;20018;-82
2022/07/31 11:34:46;;;;;;;8.45;2.60;;;21.70;99.90;;;;;;4974380;28;20452;-83
2022/07/31 11:37:20;;;;;;;10.18;2.83;;;21.80;99.90;;;;;;5029070;23;20061;-73
2022/07/31 11:39:47;;;;;;;5.68;2.30;;;21.90;99.90;;;;;;4990451;28;20018;-74
2022/07/31 11:42:12;;;;;;;4.07;2.00;;;21.80;99.90;;;;;;4994431;28;20025;-74
2022/07/31 11:44:39;;;;;;;10.63;2.30;;;22.00;99.90;;;;;;4993996;28;20105;-74
2022/07/31 11:47:04;;;;;;;5.38;2.13;;;22.10;99.90;;;;;;4994706;28;20030;-74
2022/07/31 11:49:35;;;;;;;7.10;2.72;;;22.20;99.90;;;;;;4994800;28;20077;-74
2022/07/31 11:52:06;;;;;;;9.88;2.40;;;22.10;99.90;;;;;;4994705;28;20030;-74
2022/07/31 11:54:32;;;;;;;9.45;2.85;;;22.00;99.90;;;;;;4994463;28;20021;-74
2022/07/31 11:56:58;;;;;;;10.57;2.80;;;22.10;99.90;;;;;;4994517;28;20106;-74
2022/07/31 11:59:38;;;;;;;6.20;2.65;;;22.10;99.90;;;;;;4991108;28;20109;-74
2022/07/31 12:02:11;;;;;;;6.75;2.47;;;22.20;99.90;;;;;;4993479;28;20023;-74
2022/07/31 12:04:38;;;;;;;6.53;2.17;;;22.10;99.90;;;;;;4991886;28;20042;-73
2022/07/31 12:07:06;;;;;;;9.18;2.05;;;22.20;99.90;;;;;;4992962;28;20062;-74
2022/07/31 12:09:33;;;;;;;9.30;4.03;;;22.00;99.90;;;;;;4993965;28;20043;-74
2022/07/31 12:12:00;;;;;;;5.15;2.22;;;22.20;99.90;;;;;;4990993;28;20033;-74
2022/07/31 12:14:38;;;;;;;7.93;2.38;;;22.30;99.90;;;;;;4993425;28;20026;-73
2022/07/31 12:17:17;;;;;;;10.07;2.55;;;22.40;99.90;;;;;;4991980;28;20054;-74
2022/07/31 12:19:43;;;;;;;10.10;2.92;;;22.50;99.90;;;;;;4993191;28;20045;-74
2022/07/31 12:22:17;;;;;;;9.57;2.40;;;22.70;99.90;;;;;;4993677;28;20455;-73
2022/07/31 12:24:43;;;;;;;6.45;2.15;;;23.00;99.90;;;;;;4993245;28;20531;-74
2022/07/31 12:27:17;;;;;;;4.80;2.53;;;23.40;99.90;;;;;;4993126;28;20022;-74
2022/07/31 12:29:43;;;;;;;5.28;2.05;;;24.60;99.90;;;;;;4989806;28;20018;-74
2022/07/31 12:32:09;;;;;;;5.25;2.58;;;25.90;99.90;;;;;;4989211;28;20145;-73
2022/07/31 12:34:40;;;;;;;9.15;2.33;;;26.70;99.90;;;;;;4992809;28;20081;-74
2022/07/31 12:37:13;;;;;;;4.85;2.03;;;27.40;93.50;;;;;;5009532;23;20048;-84
2022/07/31 12:39:50;;;;;;;4.32;2.03;;;27.40;89.80;;;;;;4987716;28;20396;-82
2022/07/31 12:42:31;;;;;;;4.13;1.75;;;27.70;86.30;;;;;;4993298;28;20076;-84
2022/07/31 12:45:00;;;;;;;4.75;2.03;;;28.90;77.30;;;;;;4990064;28;20030;-85
2022/07/31 12:47:32;;;;;;;9.77;2.97;;;29.40;70.80;;;;;;4991252;28;20026;-85
2022/07/31 12:49:58;;;;;;;;;;;28.90;71.20;;;;;;4989508;28;20023;-83
2022/07/31 12:52:26;;;;;;;8.35;1.90;;;29.50;69.70;;;;;;4991345;28;19918;-83
2022/07/31 12:54:52;;;;;;;7.03;2.00;;;30.50;66.60;;;;;;4987262;28;20053;-85
2022/07/31 12:57:18;;;;;;;9.23;1.85;;;30.40;64.50;;;;;;4987058;28;20042;-84
2022/07/31 12:59:44;;;;;;;4.18;1.52;;;29.90;65.40;;;;;;4980168;28;20023;-95
2022/07/31 13:02:10;;;;;;;5.55;1.85;;;30.10;66.00;;;;;;4987302;28;20034;-81